createdAt,value
2017-12-05T00:01:49.798Z,41.00
2017-12-05T00:04:18.814Z,44.23
2017-12-05T00:06:47.043Z,29.07
2017-12-05T00:09:15.277Z,34.73
2017-12-05T00:11:43.496Z,23.10
2017-12-05T00:14:11.737Z,49.70
2017-12-05T00:16:39.975Z,42.13
2017-12-05T00:19:09.000Z,48.53
2017-12-05T00:21:37.246Z,65.20
2017-12-05T00:24:05.502Z,54.50
2017-12-05T00:26:34.516Z,24.57
2017-12-05T00:29:03.501Z,27.93
2017-12-05T00:31:32.509Z,23.37
2017-12-05T00:34:00.734Z,28.20
2017-12-05T00:36:28.995Z,39.67
2017-12-05T00:38:57.201Z,34.30
2017-12-05T00:41:25.531Z,28.87
2017-12-05T00:43:53.746Z,24.23
2017-12-05T00:46:22.774Z,45.60
2017-12-05T00:48:51.007Z,24.93
2017-12-05T00:51:19.273Z,18.63
2017-12-05T00:53:47.519Z,33.00
2017-12-05T00:56:16.003Z,39.40
2017-12-05T00:58:44.225Z,21.50
2017-12-05T01:01:12.482Z,21.27
2017-12-05T01:03:40.731Z,22.00
2017-12-05T01:06:08.982Z,18.83
2017-12-05T01:08:37.240Z,39.67
2017-12-05T01:11:06.234Z,29.50
2017-12-05T01:13:34.532Z,34.40
2017-12-05T01:16:02.762Z,45.07
2017-12-05T01:18:31.052Z,35.57
2017-12-05T01:20:59.266Z,41.77
2017-12-05T01:23:27.478Z,38.37
2017-12-05T01:25:56.535Z,21.57
2017-12-05T01:28:24.762Z,41.70
2017-12-05T01:30:53.772Z,39.13
2017-12-05T01:33:22.759Z,31.37
2017-12-05T01:35:51.786Z,43.27
2017-12-05T01:38:20.005Z,37.90
2017-12-05T01:40:48.280Z,36.87
2017-12-05T01:43:16.501Z,46.93
2017-12-05T01:45:44.769Z,40.17
2017-12-05T01:48:13.006Z,29.37
2017-12-05T01:50:42.011Z,27.90
2017-12-05T01:53:11.015Z,27.97
2017-12-05T01:55:39.252Z,31.10
2017-12-05T01:58:07.474Z,49.73
2017-12-05T02:00:42.417Z,38.03
2017-12-05T02:03:10.880Z,42.70
2017-12-05T02:05:39.874Z,49.50
2017-12-05T02:08:08.131Z,32.83
2017-12-05T02:10:37.118Z,36.77
2017-12-05T02:13:05.363Z,36.77
2017-12-05T02:15:33.590Z,37.17
2017-12-05T02:18:01.832Z,40.50
2017-12-05T02:20:30.054Z,45.73
2017-12-05T02:22:58.289Z,28.37
2017-12-05T02:25:26.570Z,29.80
2017-12-05T02:27:54.758Z,38.97
2017-12-05T02:30:23.000Z,36.40
2017-12-05T02:32:51.236Z,36.10
2017-12-05T02:35:19.498Z,22.67
2017-12-05T02:37:47.724Z,28.83
2017-12-05T02:40:15.960Z,18.07
2017-12-05T02:42:44.178Z,22.97
2017-12-05T02:45:12.415Z,27.97
2017-12-05T02:47:40.676Z,31.27
2017-12-05T02:50:08.925Z,21.00
2017-12-05T02:52:37.150Z,40.30
2017-12-05T02:55:05.396Z,26.90
2017-12-05T02:57:34.370Z,28.67
2017-12-05T03:00:03.387Z,27.53
2017-12-05T03:02:31.611Z,40.80
2017-12-05T03:04:59.869Z,51.30
2017-12-05T03:07:28.381Z,27.17
2017-12-05T03:09:57.397Z,32.27
2017-12-05T03:12:25.627Z,44.93
2017-12-05T03:14:53.858Z,45.70
2017-12-05T03:17:22.090Z,42.43
2017-12-05T03:19:50.308Z,44.43
2017-12-05T03:22:19.486Z,42.20
2017-12-05T03:24:48.480Z,39.97
2017-12-05T03:27:17.481Z,37.13
2017-12-05T03:29:45.706Z,36.03
2017-12-05T03:32:13.942Z,42.23
2017-12-05T03:34:42.183Z,44.30
2017-12-05T03:37:10.413Z,21.77
2017-12-05T03:39:38.644Z,20.30
2017-12-05T03:42:07.659Z,24.37
2017-12-05T03:44:35.865Z,22.10
2017-12-05T03:47:04.089Z,20.07
2017-12-05T03:49:32.362Z,23.03
2017-12-05T03:52:01.386Z,23.73
2017-12-05T03:54:29.626Z,23.30
2017-12-05T03:56:58.607Z,32.80
2017-12-05T03:59:28.129Z,46.17
2017-12-05T04:01:56.347Z,41.60
2017-12-05T04:04:24.580Z,41.17
2017-12-05T04:06:53.678Z,38.87
2017-12-05T04:09:21.931Z,40.87
2017-12-05T04:11:50.289Z,39.17
2017-12-05T04:14:19.338Z,37.50
2017-12-05T04:16:47.791Z,34.40
2017-12-05T04:19:16.030Z,41.20
2017-12-05T04:21:44.289Z,44.50
2017-12-05T04:24:12.548Z,40.20
2017-12-05T04:26:40.810Z,27.33
2017-12-05T04:29:09.030Z,33.10
2017-12-05T04:31:37.277Z,38.97
2017-12-05T04:34:05.526Z,32.17
2017-12-05T04:36:33.784Z,59.43
2017-12-05T04:39:02.048Z,55.77
2017-12-05T04:41:31.088Z,50.23
2017-12-05T04:43:59.313Z,53.97
2017-12-05T04:46:27.540Z,46.50
2017-12-05T04:48:55.778Z,48.87
2017-12-05T04:51:24.157Z,47.70
2017-12-05T04:53:52.376Z,51.97
2017-12-05T04:56:20.621Z,48.07
2017-12-05T04:58:48.872Z,58.80
2017-12-05T05:01:17.886Z,60.50
2017-12-05T05:03:46.134Z,64.80
2017-12-05T05:06:15.143Z,58.73
2017-12-05T05:08:44.642Z,59.67
2017-12-05T05:11:13.643Z,59.20
2017-12-05T05:13:42.650Z,53.27
2017-12-05T05:16:10.901Z,55.27
2017-12-05T05:18:39.136Z,50.57
2017-12-05T05:21:07.379Z,49.53
2017-12-05T05:23:35.601Z,50.17
2017-12-05T05:26:03.845Z,53.17
2017-12-05T05:28:32.118Z,43.93
2017-12-05T05:31:00.346Z,47.43
2017-12-05T05:33:28.590Z,51.13
2017-12-05T05:35:56.894Z,53.80
2017-12-05T05:38:25.158Z,50.90
2017-12-05T05:40:53.399Z,56.27
2017-12-05T05:43:21.623Z,49.57
2017-12-05T05:45:49.911Z,49.77
2017-12-05T05:48:18.903Z,53.43
2017-12-05T05:50:47.929Z,52.70
2017-12-05T05:53:16.152Z,63.90
2017-12-05T05:55:45.170Z,66.67
2017-12-05T05:58:13.457Z,66.50
2017-12-05T06:00:41.747Z,50.03
2017-12-05T06:03:09.921Z,50.87
2017-12-05T06:05:38.170Z,55.13
2017-12-05T06:08:06.406Z,56.47
2017-12-05T06:10:34.683Z,74.47
2017-12-05T06:13:02.928Z,63.50
2017-12-05T06:15:31.168Z,58.90
2017-12-05T06:17:59.438Z,69.70
2017-12-05T06:20:27.684Z,59.80
2017-12-05T06:22:55.925Z,71.00
2017-12-05T06:25:25.019Z,62.43
2017-12-05T06:27:53.242Z,65.43
2017-12-05T06:30:22.290Z,64.87
2017-12-05T06:32:50.502Z,59.57
2017-12-05T06:35:18.738Z,51.43
2017-12-05T06:37:46.982Z,54.83
2017-12-05T06:40:15.233Z,52.20
2017-12-05T06:42:44.242Z,56.40
2017-12-05T06:45:12.482Z,56.67
2017-12-05T06:47:40.838Z,53.70
2017-12-05T06:50:09.090Z,57.80
2017-12-05T06:52:37.470Z,62.70
2017-12-05T06:55:06.456Z,63.77
2017-12-05T06:57:35.029Z,59.40
2017-12-05T07:00:03.287Z,65.70
2017-12-05T07:02:31.534Z,57.17
2017-12-05T07:04:59.776Z,54.17
2017-12-05T07:07:28.030Z,69.07
2017-12-05T07:09:56.302Z,67.80
2017-12-05T07:12:24.885Z,61.33
2017-12-05T07:14:53.128Z,57.40
2017-12-05T07:17:21.374Z,57.43
2017-12-05T07:19:49.640Z,68.80
2017-12-05T07:22:17.868Z,67.23
2017-12-05T07:24:46.566Z,72.03
2017-12-05T07:27:15.568Z,69.50
2017-12-05T07:29:44.044Z,69.43
2017-12-05T07:32:12.598Z,57.37
2017-12-05T07:34:40.838Z,52.30
2017-12-05T07:37:09.099Z,56.50
2017-12-05T07:39:37.653Z,51.97
2017-12-05T07:42:05.900Z,55.80
2017-12-05T07:44:34.170Z,52.07
2017-12-05T07:47:02.391Z,59.97
2017-12-05T07:49:30.960Z,57.67
2017-12-05T07:51:59.441Z,59.87
2017-12-05T07:54:27.747Z,45.47
2017-12-05T07:56:56.124Z,62.80
2017-12-05T07:59:24.381Z,64.10
2017-12-05T08:01:52.618Z,46.50
2017-12-05T08:04:20.858Z,43.87
2017-12-05T08:06:49.122Z,37.83
2017-12-05T08:09:17.497Z,21.97
2017-12-05T08:11:45.754Z,23.90
2017-12-05T08:14:13.982Z,22.60
2017-12-05T08:16:42.236Z,28.50
2017-12-05T08:19:10.471Z,27.00
2017-12-05T08:21:39.523Z,29.37
2017-12-05T08:24:07.759Z,24.97
2017-12-05T08:26:36.010Z,21.70
2017-12-05T08:29:04.222Z,23.60
2017-12-05T08:31:32.467Z,21.30
2017-12-05T08:34:01.460Z,23.00
2017-12-05T08:36:30.479Z,23.23
2017-12-05T08:38:58.716Z,25.73
2017-12-05T08:41:26.963Z,23.70
2017-12-05T08:43:55.214Z,27.07
2017-12-05T08:46:23.447Z,27.10
2017-12-05T08:48:51.701Z,22.83
2017-12-05T08:51:19.947Z,23.67
2017-12-05T08:53:48.198Z,37.53
2017-12-05T08:56:16.433Z,25.67
2017-12-05T08:58:45.451Z,24.70
2017-12-05T09:01:13.693Z,23.07
2017-12-05T09:03:41.950Z,23.00
2017-12-05T09:06:10.162Z,47.97
2017-12-05T09:08:39.170Z,26.77
2017-12-05T09:11:07.444Z,26.00
2017-12-05T09:13:35.696Z,24.43
2017-12-05T09:16:03.942Z,24.20
2017-12-05T09:18:32.171Z,24.77
2017-12-05T09:21:00.413Z,22.10
2017-12-05T09:23:28.704Z,23.67
2017-12-05T09:25:57.005Z,22.90
2017-12-05T09:28:25.288Z,24.57
2017-12-05T09:30:53.639Z,27.40
2017-12-05T09:33:21.886Z,28.20
2017-12-05T09:35:50.154Z,27.03
2017-12-05T09:38:18.363Z,30.63
2017-12-05T09:40:46.622Z,27.30
2017-12-05T09:43:14.873Z,31.20
2017-12-05T09:45:43.130Z,30.60
2017-12-05T09:48:11.673Z,36.30
2017-12-05T09:50:40.666Z,37.63
2017-12-05T09:53:08.914Z,31.60
2017-12-05T09:55:37.203Z,33.63
2017-12-05T09:58:06.203Z,34.60
2017-12-05T10:00:34.457Z,37.50
2017-12-05T10:03:03.478Z,36.50
2017-12-05T10:05:31.713Z,34.27
2017-12-05T10:07:59.953Z,34.60
2017-12-05T10:10:28.607Z,54.90
2017-12-05T10:12:57.598Z,36.67
2017-12-05T10:15:26.601Z,36.80
2017-12-05T10:17:55.077Z,37.70
2017-12-05T10:20:23.323Z,36.10
2017-12-05T10:22:51.593Z,36.67
2017-12-05T10:25:19.833Z,39.57
2017-12-05T10:27:48.066Z,37.73
2017-12-05T10:30:16.322Z,39.83
2017-12-05T10:32:44.558Z,39.27
2017-12-05T10:35:12.851Z,38.07
2017-12-05T10:37:41.849Z,34.97
2017-12-05T10:40:10.137Z,35.17
2017-12-05T10:42:38.523Z,42.37
2017-12-05T10:45:07.466Z,38.47
2017-12-05T10:47:35.722Z,38.93
2017-12-05T10:50:04.015Z,37.47
2017-12-05T10:52:32.567Z,38.53
2017-12-05T10:55:01.570Z,34.70
2017-12-05T10:57:29.914Z,38.83
2017-12-05T10:59:58.252Z,38.80
2017-12-05T11:02:26.595Z,36.37
2017-12-05T11:04:55.573Z,59.80
2017-12-05T11:07:24.574Z,56.83
2017-12-05T11:09:52.833Z,64.27
2017-12-05T11:12:21.885Z,67.80
2017-12-05T11:14:50.120Z,65.47
2017-12-05T11:17:18.378Z,40.03
2017-12-05T11:19:47.394Z,59.53
2017-12-05T11:22:15.655Z,89.03
2017-12-05T11:24:43.910Z,73.80
2017-12-05T11:27:12.933Z,78.83
2017-12-05T11:29:41.196Z,91.53
2017-12-05T11:32:09.466Z,76.33
2017-12-05T11:34:37.728Z,71.40
2017-12-05T11:37:06.026Z,74.07
2017-12-05T11:39:34.306Z,73.53
2017-12-05T11:42:02.560Z,72.33
2017-12-05T11:44:31.886Z,73.00
2017-12-05T11:47:00.266Z,71.27
2017-12-05T11:49:28.490Z,74.87
2017-12-05T11:51:56.745Z,74.87
2017-12-05T11:54:24.997Z,66.00
2017-12-05T11:56:53.263Z,70.33
2017-12-05T11:59:21.510Z,70.03
2017-12-05T12:01:49.906Z,63.50
2017-12-05T12:04:18.148Z,71.87
2017-12-05T12:06:46.406Z,59.10
2017-12-05T12:09:14.676Z,58.97
2017-12-05T12:11:42.927Z,63.87
2017-12-05T12:14:11.721Z,65.87
2017-12-05T12:16:40.100Z,66.10
2017-12-05T12:19:09.129Z,60.63
2017-12-05T12:21:37.430Z,64.63
2017-12-05T12:24:06.507Z,62.90
2017-12-05T12:26:34.776Z,61.20
2017-12-05T12:29:03.013Z,67.27
2017-12-05T12:31:31.258Z,60.87
2017-12-05T12:33:59.501Z,31.70
2017-12-05T12:36:28.560Z,34.60
2017-12-05T12:38:56.848Z,31.37
2017-12-05T12:41:25.150Z,35.03
2017-12-05T12:43:53.403Z,33.17
2017-12-05T12:46:21.670Z,68.37
2017-12-05T12:48:49.941Z,62.17
2017-12-05T12:51:18.174Z,62.90
2017-12-05T12:53:47.189Z,62.73
2017-12-05T12:56:15.435Z,61.53
2017-12-05T12:58:44.560Z,65.30
2017-12-05T13:01:12.786Z,55.37
2017-12-05T13:03:41.034Z,61.07
2017-12-05T13:06:09.323Z,65.30
2017-12-05T13:08:37.583Z,70.83
2017-12-05T13:11:05.839Z,67.50
2017-12-05T13:13:34.084Z,68.57
2017-12-05T13:16:03.099Z,69.57
2017-12-05T13:18:31.689Z,64.23
2017-12-05T13:20:59.946Z,75.00
2017-12-05T13:23:28.962Z,66.30
2017-12-05T13:25:57.234Z,71.57
2017-12-05T13:28:25.495Z,71.33
2017-12-05T13:30:53.787Z,67.97
2017-12-05T13:33:22.042Z,66.80
2017-12-05T13:35:51.352Z,64.83
2017-12-05T13:38:19.599Z,79.57
2017-12-05T13:40:48.647Z,72.40
2017-12-05T13:43:16.878Z,74.20
2017-12-05T13:45:45.912Z,77.63
2017-12-05T13:48:14.154Z,78.37
2017-12-05T13:50:42.398Z,67.10
2017-12-05T13:53:10.646Z,67.87
2017-12-05T13:55:39.100Z,76.30
2017-12-05T13:58:07.322Z,85.73
2017-12-05T14:00:35.955Z,74.53
2017-12-05T14:03:04.432Z,84.63
2017-12-05T14:05:32.686Z,84.23
2017-12-05T14:08:01.092Z,80.07
2017-12-05T14:10:29.382Z,71.07
2017-12-05T14:12:57.638Z,81.20
2017-12-05T14:15:25.895Z,75.90
2017-12-05T14:17:54.189Z,84.20
2017-12-05T14:20:22.460Z,72.80
2017-12-05T14:22:50.720Z,78.70
2017-12-05T14:25:19.326Z,71.03
2017-12-05T14:27:47.566Z,76.97
2017-12-05T14:30:15.815Z,77.30
2017-12-05T14:32:44.059Z,76.13
2017-12-05T14:35:12.326Z,77.37
2017-12-05T14:37:40.599Z,73.20
2017-12-05T14:40:09.594Z,80.10
2017-12-05T14:42:37.874Z,82.80
2017-12-05T14:45:06.675Z,83.50
2017-12-05T14:47:34.958Z,81.70
2017-12-05T14:50:03.298Z,76.87
2017-12-05T14:52:31.563Z,83.40
2017-12-05T14:55:00.803Z,97.63
2017-12-05T14:57:29.064Z,88.47
2017-12-05T14:59:57.313Z,82.37
2017-12-05T15:02:26.341Z,78.10
2017-12-05T15:04:54.616Z,79.47
2017-12-05T15:07:22.862Z,71.90
2017-12-05T15:09:51.119Z,82.33
2017-12-05T15:12:20.160Z,75.30
2017-12-05T15:14:48.400Z,73.47
2017-12-05T15:17:16.673Z,73.33
2017-12-05T15:19:45.689Z,75.07
2017-12-05T15:22:13.988Z,69.50
2017-12-05T15:24:42.206Z,57.80
2017-12-05T15:27:10.450Z,67.57
2017-12-05T15:29:38.706Z,78.53
2017-12-05T15:32:06.954Z,73.50
2017-12-05T15:34:35.962Z,80.93
2017-12-05T15:37:05.035Z,92.50
2017-12-05T15:39:34.054Z,76.00
2017-12-05T15:42:02.405Z,87.27
2017-12-05T15:44:31.413Z,83.47
2017-12-05T15:47:00.411Z,86.27
2017-12-05T15:49:28.658Z,71.73
2017-12-05T15:51:56.890Z,67.43
2017-12-05T15:54:26.084Z,72.70
2017-12-05T15:56:54.320Z,78.67
2017-12-05T15:59:22.569Z,79.90
2017-12-05T16:01:50.806Z,69.80
2017-12-05T16:04:19.057Z,75.17
2017-12-05T16:06:47.298Z,70.97
2017-12-05T16:09:16.361Z,72.67
2017-12-05T16:11:44.593Z,82.80
2017-12-05T16:14:12.864Z,98.37
2017-12-05T16:16:41.873Z,90.30
2017-12-05T16:19:10.102Z,115.50
2017-12-05T16:21:38.388Z,79.50
2017-12-05T16:24:06.668Z,58.33
2017-12-05T16:26:35.795Z,91.20
2017-12-05T16:29:04.110Z,76.27
2017-12-05T16:31:32.420Z,36.77
2017-12-05T16:34:00.784Z,58.00
2017-12-05T16:36:29.278Z,82.17
2017-12-05T16:38:57.605Z,74.20
2017-12-05T16:41:25.821Z,92.80
2017-12-05T16:43:54.097Z,83.27
2017-12-05T16:46:22.348Z,90.10
2017-12-05T16:48:50.624Z,97.57
2017-12-05T16:51:18.907Z,42.73
2017-12-05T16:53:47.143Z,74.10
2017-12-05T16:56:15.395Z,46.03
2017-12-05T16:58:44.699Z,41.13
2017-12-05T17:01:13.694Z,66.67
2017-12-05T17:03:41.942Z,44.63
2017-12-05T17:06:10.173Z,40.27
2017-12-05T17:08:38.444Z,42.93
2017-12-05T17:11:06.665Z,68.77
2017-12-05T17:13:34.983Z,69.13
2017-12-05T17:16:03.977Z,78.93
2017-12-05T17:18:32.272Z,42.30
2017-12-05T17:21:00.546Z,54.57
2017-12-05T17:23:28.781Z,47.93
2017-12-05T17:25:57.786Z,69.07
2017-12-05T17:28:26.159Z,85.33
2017-12-05T17:30:54.386Z,65.27
2017-12-05T17:33:22.623Z,78.33
2017-12-05T17:35:50.874Z,78.93
2017-12-05T17:38:19.980Z,76.30
2017-12-05T17:40:48.247Z,68.77
2017-12-05T17:43:17.349Z,77.37
2017-12-05T17:45:45.822Z,76.33
2017-12-05T17:48:14.082Z,88.83
2017-12-05T17:50:43.098Z,71.13
2017-12-05T17:53:11.346Z,71.80
2017-12-05T17:55:39.622Z,79.27
2017-12-05T17:58:08.652Z,108.53
2017-12-05T18:00:36.887Z,90.93
2017-12-05T18:03:05.918Z,101.00
2017-12-05T18:05:34.971Z,92.60
2017-12-05T18:08:04.005Z,77.87
2017-12-05T18:10:32.259Z,84.30
2017-12-05T18:13:00.603Z,89.13
2017-12-05T18:15:28.851Z,106.37
2017-12-05T18:17:57.717Z,73.27
2017-12-05T18:20:26.190Z,64.50
2017-12-05T18:22:54.510Z,68.77
2017-12-05T18:25:22.768Z,86.70
2017-12-05T18:27:51.027Z,75.73
2017-12-05T18:30:19.267Z,68.63
2017-12-05T18:32:48.296Z,86.73
2017-12-05T18:35:16.546Z,55.70
2017-12-05T18:37:44.799Z,61.37
2017-12-05T18:40:13.846Z,61.87
2017-12-05T18:42:42.102Z,91.53
2017-12-05T18:45:10.369Z,90.20
2017-12-05T18:47:38.630Z,74.60
2017-12-05T18:50:07.682Z,104.53
2017-12-05T18:52:35.929Z,85.73
2017-12-05T18:55:04.419Z,86.23
2017-12-05T18:57:33.486Z,118.83
2017-12-05T19:00:01.877Z,95.30
2017-12-05T19:02:30.879Z,85.60
2017-12-05T19:04:59.118Z,91.63
2017-12-05T19:07:28.139Z,83.67
2017-12-05T19:09:56.419Z,92.03
2017-12-05T19:12:24.664Z,59.23
2017-12-05T19:14:53.667Z,77.53
2017-12-05T19:17:21.911Z,89.73
2017-12-05T19:19:50.169Z,90.73
2017-12-05T19:22:18.495Z,88.63
2017-12-05T19:24:46.738Z,73.00
2017-12-05T19:27:14.995Z,76.03
2017-12-05T19:29:43.255Z,89.57
2017-12-05T19:32:11.499Z,60.77
2017-12-05T19:40:29.432Z,81.63
2017-12-05T19:42:57.721Z,69.33
2017-12-05T19:45:25.983Z,49.20
2017-12-05T19:47:54.229Z,58.20
2017-12-05T19:50:22.519Z,46.33
2017-12-05T19:52:50.780Z,69.27
2017-12-05T19:58:17.826Z,75.43
2017-12-05T20:00:46.835Z,40.70
2017-12-05T20:03:15.080Z,39.23
2017-12-05T20:05:44.074Z,51.30
2017-12-05T20:08:13.078Z,65.47
2017-12-05T20:10:41.326Z,60.00
2017-12-05T20:13:09.575Z,59.70
2017-12-05T20:15:37.803Z,39.73
2017-12-05T20:18:06.042Z,38.50
2017-12-05T20:20:34.309Z,59.20
2017-12-05T20:23:02.561Z,35.17
2017-12-05T20:25:30.773Z,57.70
2017-12-05T20:27:59.053Z,51.47
2017-12-05T20:30:28.056Z,36.70
2017-12-05T20:35:54.758Z,69.33
2017-12-05T20:38:23.014Z,34.93
2017-12-05T20:40:51.238Z,80.27
2017-12-05T20:43:19.516Z,84.93
2017-12-05T20:45:47.765Z,83.73
2017-12-05T20:48:16.038Z,35.17
2017-12-05T20:50:44.305Z,35.23
2017-12-05T20:53:12.553Z,37.27
2017-12-05T20:55:41.596Z,36.50
2017-12-05T20:58:10.630Z,83.43
2017-12-05T21:03:37.528Z,80.90
2017-12-05T21:06:06.953Z,79.10
2017-12-05T21:08:35.374Z,92.40
2017-12-05T21:11:04.380Z,82.23
2017-12-05T21:13:32.689Z,100.07
2017-12-05T21:16:01.009Z,90.87
2017-12-05T21:18:29.230Z,92.97
2017-12-05T21:20:57.502Z,90.40
2017-12-05T21:23:25.733Z,80.03
2017-12-05T21:25:54.774Z,89.10
2017-12-05T21:28:23.023Z,47.53
2017-12-05T21:30:51.311Z,55.20
2017-12-05T21:33:19.589Z,72.20
2017-12-05T21:35:48.743Z,88.93
2017-12-05T21:38:17.078Z,57.63
2017-12-05T21:40:45.332Z,70.13
2017-12-05T21:43:13.622Z,59.47
2017-12-05T21:48:39.336Z,55.27
2017-12-05T21:51:20.308Z,69.80
2017-12-05T21:56:46.685Z,55.60
2017-12-05T21:59:14.913Z,52.53
2017-12-05T22:01:43.189Z,71.17
2017-12-05T22:04:11.402Z,57.53
2017-12-05T22:06:39.649Z,72.10
2017-12-05T22:09:08.929Z,68.87
2017-12-05T22:11:38.085Z,65.17
2017-12-05T22:14:06.365Z,70.27
2017-12-05T22:16:34.618Z,65.63
2017-12-05T22:19:02.953Z,80.40
2017-12-05T22:21:31.147Z,68.80
2017-12-05T22:24:00.279Z,60.17
2017-12-05T22:26:28.551Z,66.43
2017-12-05T22:28:56.790Z,67.33
2017-12-05T22:31:25.865Z,73.47
2017-12-05T22:33:54.373Z,80.80
2017-12-05T22:36:23.388Z,27.73
2017-12-05T22:38:51.771Z,73.47
2017-12-05T22:41:19.997Z,66.00
2017-12-05T22:43:48.234Z,86.70
2017-12-05T22:46:16.476Z,82.67
2017-12-05T22:48:44.720Z,80.30
2017-12-05T22:51:13.009Z,82.33
2017-12-05T22:53:42.011Z,63.93
2017-12-05T22:56:11.011Z,83.53
2017-12-05T22:58:39.327Z,79.17
2017-12-05T23:01:07.870Z,66.17
2017-12-05T23:03:38.318Z,58.33
2017-12-05T23:06:09.384Z,61.40
2017-12-05T23:08:37.625Z,45.90
2017-12-05T23:11:05.875Z,47.20
2017-12-05T23:13:34.095Z,52.07
2017-12-05T23:16:02.295Z,50.13
2017-12-05T23:18:30.546Z,51.83
2017-12-05T23:20:58.810Z,48.93
2017-12-05T23:23:27.022Z,52.10
2017-12-05T23:25:56.053Z,52.70
2017-12-05T23:28:25.069Z,56.30
2017-12-05T23:30:53.297Z,59.53
2017-12-05T23:33:21.541Z,63.97
2017-12-05T23:35:50.569Z,53.37
2017-12-05T23:38:18.805Z,53.13
2017-12-05T23:40:47.032Z,87.23
2017-12-05T23:43:16.020Z,84.17
2017-12-05T23:45:44.245Z,60.50
2017-12-05T23:48:12.482Z,63.07
2017-12-05T23:50:40.746Z,61.87
2017-12-05T23:53:08.942Z,67.30
2017-12-05T23:55:37.158Z,65.63
2017-12-05T23:58:05.394Z,66.83
